Terminal Aerodrome Forecast
Issued by NWS

Home | Current Version | Previous Version | Text Only | Print | Product List | Glossary On
Versions: 1 2 3 4 5 6 7 8 9 10 11 12 13 14 15
000
FTUS44 KEPZ 230500 RRA
TAFLRU
TAF
KLRU 230545Z 2306/2406 22014G24KT P6SM BKN250
     FM230800 27011KT P6SM SCT250
     FM231600 24015G25KT P6SM SCT050 SCT250
     FM240300 27007KT P6SM FEW250=

USA.gov is the U.S. government's official web portal to all federal, state and local government web resources and services.